Burley Municipal Airport
KBYI : now visible

Airfield :











YOU CAN JOIN US ON...

 
LOGIN :

Register | Disclaimer

   EN    FR    IT 

 









Legend :    VFR   Marginal VFR   IFR   Intensive IFR   Very Intensive IFR
Visi :
Ceiling :
>= 8 km
>= 3000ft
5 to 8 km
1000 to 3000 ft
1500m to 5 km
500 to 1000 ft
800 to 1500m
200 to 500 ft
< 800m
< 200 ft
Symbols :   Thunderstorms  Fog  Heavy snow  Heavy precipitations  Wind > 20 kt






- Airport Elevation : 4150 ft


KBYI - Burley Municipal

CURRENT METAR :
  • 080753Z AUTO 21017G27KT 10SM BKN070 OVC090 07/00 A2980 RMK AO2 PK WND 20027/0744 SLP078 T00720000

EXPIRED METARs :
  • 080653Z AUTO 20018KT 10SM OVC100 07/00 A2980 RMK AO2 PK WND 20026/0635 SLP081 T00670000 401111006
  • 080553Z AUTO 20016G24KT 10SM BKN070 OVC090 07/01 A2983 RMK AO2 PK WND 20030/0526 RAB43E53 SLP091 P0000 60000 T00720006 10094 20061 56014

TAF KBYI
Valid from the 08 at 06:00 until the 09 at 06:00 UTC


080534Z 0806/0906 21010G20KT P6SM VCSH OVC080
FM081000 19010KT P6SM -SHRA OVC035
FM081400 23011KT P6SM VCSH SCT020 OVC035
FM081800 26015KT P6SM OVC030
FM090300 26011KT P6SM BKN080



MET'MAP, your aeronautical weather chart ! - Copyright ORBIFLY December 2007 - Disclaimer

ORBIFLY MET'MAP TEAM :

Programming & Development : Alexandra Zaïnal
Concept & original design : Baudouin d'Aumeries
Assistance for programming : Marc-Olivier Méhu
Technical & hardware support : Manuel Goepfert

Contact : metmap@orbifly.com




SOURCES & CREDITS :

   NOAA       Earth
Advisory